createdAt,value
2022-09-06T00:01:26.385Z,86.10
2022-09-06T00:03:53.118Z,86.30
2022-09-06T00:06:20.841Z,86.00
2022-09-06T00:08:49.038Z,86.10
2022-09-06T00:11:17.628Z,87.40
2022-09-06T00:13:45.106Z,86.90
2022-09-06T00:16:17.448Z,87.50
2022-09-06T00:18:44.828Z,88.20
2022-09-06T00:21:21.992Z,89.90
2022-09-06T00:23:48.903Z,90.30
2022-09-06T00:26:16.215Z,88.50
2022-09-06T00:28:43.072Z,88.60
2022-09-06T00:31:13.278Z,88.40
2022-09-06T00:33:40.290Z,88.00
2022-09-06T00:36:08.084Z,87.40
2022-09-06T00:38:35.106Z,87.80
2022-09-06T00:41:03.332Z,87.30
2022-09-06T00:43:30.240Z,87.70
2022-09-06T00:45:57.585Z,87.50
2022-09-06T00:48:48.802Z,86.90
2022-09-06T00:51:17.205Z,87.90
2022-09-06T00:53:44.500Z,88.00
2022-09-06T00:56:12.051Z,87.60
2022-09-06T00:58:38.995Z,87.80
2022-09-06T01:01:06.809Z,87.60
2022-09-06T01:03:33.582Z,88.10
2022-09-06T01:06:09.731Z,88.10
2022-09-06T01:08:45.435Z,88.00
2022-09-06T01:11:31.065Z,87.50
2022-09-06T01:14:34.567Z,87.30
2022-09-06T01:17:12.470Z,86.30
2022-09-06T01:20:00.911Z,87.30
2022-09-06T01:22:51.903Z,87.40
2022-09-06T01:25:56.371Z,87.60
2022-09-06T01:28:43.772Z,86.70
2022-09-06T01:31:25.434Z,87.40
2022-09-06T01:34:07.024Z,87.90
2022-09-06T01:37:10.626Z,88.30
2022-09-06T01:39:39.644Z,87.90
2022-09-06T01:42:14.358Z,88.50
2022-09-06T01:44:45.838Z,88.30
2022-09-06T01:47:21.725Z,88.10
2022-09-06T01:50:15.513Z,89.00
2022-09-06T01:52:56.716Z,88.00
2022-09-06T01:55:30.109Z,88.70
2022-09-06T01:58:21.425Z,88.40
2022-09-06T02:01:21.823Z,87.60
2022-09-06T02:04:24.779Z,88.50
2022-09-06T02:06:58.238Z,89.00
2022-09-06T02:09:28.670Z,91.20
2022-09-06T02:11:58.712Z,91.50
2022-09-06T02:14:51.938Z,92.20
2022-09-06T02:17:23.904Z,92.80
2022-09-06T02:20:02.622Z,90.70
2022-09-06T02:22:32.987Z,90.90
2022-09-06T02:25:01.093Z,90.80
2022-09-06T02:27:30.748Z,92.60
2022-09-06T02:29:57.950Z,93.50
2022-09-06T02:32:28.585Z,93.30
2022-09-06T02:34:57.213Z,92.30
2022-09-06T02:37:26.145Z,92.40
2022-09-06T02:39:55.399Z,92.70
2022-09-06T02:42:24.107Z,94.10
2022-09-06T02:44:50.866Z,92.90
2022-09-06T02:47:18.232Z,91.10
2022-09-06T02:49:44.988Z,91.10
2022-09-06T02:52:12.002Z,90.80
2022-09-06T02:54:38.715Z,90.70
2022-09-06T02:57:05.605Z,91.00
2022-09-06T02:59:32.613Z,90.80
2022-09-06T03:02:00.164Z,90.70
2022-09-06T03:04:26.988Z,90.40
2022-09-06T03:06:53.695Z,90.50
2022-09-06T03:09:20.586Z,90.70
2022-09-06T03:11:47.299Z,90.80
2022-09-06T03:14:17.004Z,91.30
2022-09-06T03:16:43.790Z,91.40
2022-09-06T03:19:10.606Z,91.00
2022-09-06T03:21:37.284Z,91.00
2022-09-06T03:24:04.086Z,90.80
2022-09-06T03:26:30.847Z,90.70
2022-09-06T03:28:57.631Z,90.90
2022-09-06T03:31:24.328Z,90.80
2022-09-06T03:33:51.068Z,90.30
2022-09-06T03:36:17.816Z,90.50
2022-09-06T03:38:44.603Z,90.70
2022-09-06T03:41:11.319Z,90.80
2022-09-06T03:43:38.060Z,91.00
2022-09-06T03:46:04.811Z,90.70
2022-09-06T03:48:32.625Z,90.50
2022-09-06T03:50:59.995Z,90.60
2022-09-06T03:53:28.475Z,90.60
2022-09-06T03:55:57.644Z,90.10
2022-09-06T03:58:28.565Z,90.60
2022-09-06T04:01:07.867Z,90.20
2022-09-06T04:03:35.484Z,90.60
2022-09-06T04:06:02.584Z,90.40
2022-09-06T04:08:29.765Z,90.50
2022-09-06T04:10:58.195Z,90.60
2022-09-06T04:13:26.484Z,90.20
2022-09-06T04:15:53.485Z,90.10
2022-09-06T04:18:21.304Z,90.40
2022-09-06T04:20:49.447Z,89.90
2022-09-06T04:23:16.576Z,90.30
2022-09-06T04:25:51.302Z,90.40
2022-09-06T04:28:18.921Z,90.40
2022-09-06T04:30:51.529Z,89.20
2022-09-06T04:33:18.326Z,90.00
2022-09-06T04:35:49.916Z,90.50
2022-09-06T04:38:16.953Z,90.60
2022-09-06T04:40:43.643Z,90.60
2022-09-06T04:43:10.409Z,90.50
2022-09-06T04:45:37.290Z,90.80
2022-09-06T04:48:04.436Z,90.50
2022-09-06T04:50:31.182Z,90.40
2022-09-06T04:52:57.868Z,90.50
2022-09-06T04:55:26.425Z,90.80
2022-09-06T04:57:54.528Z,90.90
2022-09-06T05:00:21.904Z,90.90
2022-09-06T05:02:48.570Z,90.80
2022-09-06T05:05:15.412Z,91.10
2022-09-06T05:07:42.106Z,90.60
2022-09-06T05:10:09.437Z,91.60
2022-09-06T05:12:38.806Z,91.40
2022-09-06T05:15:08.328Z,90.60
2022-09-06T05:17:35.025Z,90.90
2022-09-06T05:20:01.928Z,90.80
2022-09-06T05:22:28.595Z,90.50
2022-09-06T05:24:56.446Z,90.50
2022-09-06T05:27:23.203Z,90.70
2022-09-06T05:29:50.033Z,90.70
2022-09-06T05:32:16.809Z,90.90
2022-09-06T05:34:43.555Z,90.70
2022-09-06T05:37:10.250Z,90.40
2022-09-06T05:39:36.944Z,90.50
2022-09-06T05:42:06.684Z,90.40
2022-09-06T05:44:35.418Z,90.70
2022-09-06T05:47:02.205Z,89.90
2022-09-06T05:49:32.512Z,90.40
2022-09-06T05:52:00.531Z,90.70
2022-09-06T05:54:27.400Z,90.90
2022-09-06T05:56:54.522Z,91.10
2022-09-06T05:59:21.242Z,90.90
2022-09-06T06:01:53.329Z,91.20
2022-09-06T06:04:21.602Z,91.30
2022-09-06T06:06:49.352Z,90.50
2022-09-06T06:09:16.867Z,90.10
2022-09-06T06:11:44.035Z,90.40
2022-09-06T06:14:11.118Z,90.90
2022-09-06T06:16:37.963Z,91.00
2022-09-06T06:19:04.706Z,91.00
2022-09-06T06:21:33.370Z,91.10
2022-09-06T06:24:04.894Z,91.30
2022-09-06T06:26:34.363Z,91.30
2022-09-06T06:29:03.955Z,90.90
2022-09-06T06:31:33.348Z,91.40
2022-09-06T06:34:03.169Z,91.30
2022-09-06T06:36:35.002Z,91.40
2022-09-06T06:39:04.053Z,91.10
2022-09-06T06:41:32.610Z,91.70
2022-09-06T06:44:01.634Z,91.00
2022-09-06T06:46:31.330Z,90.20
2022-09-06T06:48:58.389Z,90.60
2022-09-06T06:51:30.593Z,90.80
2022-09-06T06:53:57.585Z,90.20
2022-09-06T06:56:31.129Z,90.30
2022-09-06T06:59:05.833Z,90.20
2022-09-06T07:01:34.198Z,89.50
2022-09-06T07:04:01.290Z,89.50
2022-09-06T07:09:18.158Z,88.60
2022-09-06T07:11:45.581Z,88.70
2022-09-06T07:14:12.310Z,88.00
2022-09-06T07:16:39.129Z,87.10
2022-09-06T07:19:07.142Z,86.50
2022-09-06T07:24:08.301Z,86.30
2022-09-06T07:26:37.627Z,83.80
2022-09-06T07:29:06.596Z,83.70
2022-09-06T07:34:21.055Z,84.50
2022-09-06T07:36:48.538Z,83.00
2022-09-06T07:39:16.687Z,83.10
2022-09-06T07:41:43.472Z,84.00
2022-09-06T07:44:10.496Z,82.50
2022-09-06T07:46:38.150Z,81.70
2022-09-06T07:49:06.002Z,82.00
2022-09-06T07:51:33.336Z,82.20
2022-09-06T07:56:47.953Z,82.10
2022-09-06T07:59:14.803Z,82.00
2022-09-06T08:01:42.019Z,82.70
2022-09-06T08:04:13.176Z,82.10
2022-09-06T08:09:35.077Z,82.00
2022-09-06T08:12:06.738Z,81.50
2022-09-06T08:14:34.491Z,81.50
2022-09-06T08:17:01.690Z,81.50
2022-09-06T08:19:28.427Z,82.10
2022-09-06T08:21:55.639Z,81.30
2022-09-06T08:24:22.393Z,82.50
2022-09-06T08:26:50.463Z,82.30
2022-09-06T08:29:17.284Z,84.40
2022-09-06T08:31:45.549Z,83.20
2022-09-06T08:34:12.853Z,82.30
2022-09-06T08:36:40.023Z,81.50
2022-09-06T08:39:11.667Z,82.00
2022-09-06T08:41:51.613Z,82.90
2022-09-06T08:47:21.820Z,82.20
2022-09-06T08:49:55.235Z,82.70
2022-09-06T08:53:16.823Z,80.90
2022-09-06T08:55:59.287Z,82.20
2022-09-06T08:58:39.224Z,82.30
2022-09-06T09:01:23.108Z,82.30
2022-09-06T09:03:50.612Z,81.90
2022-09-06T09:06:17.297Z,81.30
2022-09-06T09:08:59.142Z,82.70
2022-09-06T09:11:26.017Z,81.70
2022-09-06T09:14:25.973Z,81.50
2022-09-06T09:17:03.520Z,80.80
2022-09-06T09:19:33.516Z,81.70
2022-09-06T09:22:00.893Z,82.50
2022-09-06T09:24:27.898Z,81.10
2022-09-06T09:27:02.451Z,81.70
2022-09-06T09:29:33.191Z,81.10
2022-09-06T09:32:03.827Z,81.40
2022-09-06T09:34:39.784Z,82.20
2022-09-06T09:40:33.636Z,82.70
2022-09-06T09:43:22.752Z,81.60
2022-09-06T09:46:12.472Z,81.20
2022-09-06T09:48:40.513Z,79.90
2022-09-06T09:51:27.386Z,81.00
2022-09-06T09:54:04.111Z,81.50
2022-09-06T09:56:38.902Z,81.10
2022-09-06T09:59:22.675Z,81.30
2022-09-06T10:01:52.239Z,80.80
2022-09-06T10:04:45.261Z,80.90
2022-09-06T10:07:23.773Z,80.80
2022-09-06T10:09:59.056Z,81.50
2022-09-06T10:12:30.353Z,82.40
2022-09-06T10:14:57.798Z,80.40
2022-09-06T10:17:35.389Z,81.40
2022-09-06T10:20:10.331Z,81.70
2022-09-06T10:22:45.656Z,81.50
2022-09-06T10:25:39.864Z,81.10
2022-09-06T10:28:15.399Z,80.00
2022-09-06T10:31:19.635Z,80.90
2022-09-06T10:34:17.022Z,80.90
2022-09-06T10:37:08.462Z,81.70
2022-09-06T10:40:06.291Z,81.70
2022-09-06T10:42:45.539Z,80.10
2022-09-06T10:45:29.205Z,80.60
2022-09-06T10:48:10.207Z,79.60
2022-09-06T10:50:58.158Z,79.00
2022-09-06T10:53:44.125Z,79.80
2022-09-06T10:56:12.847Z,80.40
2022-09-06T11:02:13.043Z,80.40
2022-09-06T11:07:31.420Z,79.70
2022-09-06T11:10:08.986Z,80.00
2022-09-06T11:13:08.528Z,79.30
2022-09-06T11:15:58.303Z,80.40
2022-09-06T11:19:09.607Z,80.60
2022-09-06T11:22:11.426Z,80.30
2022-09-06T11:24:44.371Z,80.80
2022-09-06T11:27:32.050Z,80.10
2022-09-06T11:30:01.988Z,80.00
2022-09-06T11:32:28.813Z,81.00
2022-09-06T11:34:58.137Z,79.40
2022-09-06T11:37:34.705Z,80.40
2022-09-06T11:40:28.815Z,79.90
2022-09-06T11:42:59.426Z,80.30
2022-09-06T11:45:47.598Z,79.50
2022-09-06T11:48:23.406Z,79.10
2022-09-06T11:50:59.276Z,80.50
2022-09-06T11:53:27.839Z,80.10
2022-09-06T11:56:00.796Z,80.20
2022-09-06T11:58:43.407Z,80.20
2022-09-06T12:01:13.158Z,81.80
2022-09-06T12:04:05.378Z,79.00
2022-09-06T12:06:40.679Z,80.80
2022-09-06T12:09:31.453Z,79.80
2022-09-06T12:11:59.542Z,81.00
2022-09-06T12:14:41.415Z,80.60
2022-09-06T12:17:08.998Z,82.10
2022-09-06T12:19:47.015Z,82.60
2022-09-06T12:22:29.513Z,81.30
2022-09-06T12:25:15.719Z,82.40
2022-09-06T12:27:54.592Z,83.70
2022-09-06T12:30:44.614Z,80.90
2022-09-06T12:33:22.034Z,80.30
2022-09-06T12:35:58.613Z,81.20
2022-09-06T12:38:28.657Z,82.70
2022-09-06T12:40:59.235Z,82.60
2022-09-06T12:43:28.379Z,81.40
2022-09-06T12:45:56.102Z,80.30
2022-09-06T12:48:28.724Z,80.20
2022-09-06T12:51:20.747Z,81.10
2022-09-06T12:53:58.552Z,80.70
2022-09-06T12:56:28.029Z,82.60
2022-09-06T12:59:21.368Z,81.60
2022-09-06T13:02:07.574Z,82.00
2022-09-06T13:04:41.767Z,80.20
2022-09-06T13:07:15.884Z,80.80
2022-09-06T13:09:47.664Z,80.90
2022-09-06T13:12:27.563Z,79.70
2022-09-06T13:14:56.236Z,80.10
2022-09-06T13:17:27.272Z,78.80
2022-09-06T13:19:55.071Z,80.60
2022-09-06T13:22:49.302Z,80.30
2022-09-06T13:25:21.173Z,79.50
2022-09-06T13:27:57.614Z,78.70
2022-09-06T13:30:49.950Z,78.60
2022-09-06T13:33:26.530Z,80.50
2022-09-06T13:36:06.099Z,77.40
2022-09-06T13:38:34.617Z,78.00
2022-09-06T13:41:17.075Z,78.50
2022-09-06T13:43:47.632Z,78.10
2022-09-06T13:46:17.690Z,77.90
2022-09-06T13:48:45.137Z,77.50
2022-09-06T13:51:12.151Z,78.70
2022-09-06T13:53:38.927Z,77.30
2022-09-06T13:56:08.878Z,78.70
2022-09-06T13:58:36.229Z,78.20
2022-09-06T14:01:03.238Z,78.20
2022-09-06T14:03:32.477Z,76.50
2022-09-06T14:06:00.356Z,77.40
2022-09-06T14:08:38.831Z,78.10
2022-09-06T14:11:16.247Z,77.80
2022-09-06T14:13:42.939Z,77.10
2022-09-06T14:16:10.836Z,76.30
2022-09-06T14:18:38.018Z,77.50
2022-09-06T14:21:05.442Z,79.30
2022-09-06T14:23:32.251Z,77.20
2022-09-06T14:26:00.239Z,76.50
2022-09-06T14:28:28.104Z,76.80
2022-09-06T14:30:55.196Z,81.10
2022-09-06T14:33:23.270Z,75.50
2022-09-06T14:35:49.975Z,77.50
2022-09-06T14:38:16.824Z,76.00
2022-09-06T14:40:44.269Z,78.70
2022-09-06T14:43:11.166Z,78.20
2022-09-06T14:45:37.993Z,76.50
2022-09-06T14:48:05.558Z,76.90
2022-09-06T14:50:32.482Z,80.60
2022-09-06T14:52:59.323Z,80.10
2022-09-06T14:55:28.112Z,76.90
2022-09-06T14:57:55.285Z,76.70
2022-09-06T15:00:22.707Z,78.70
2022-09-06T15:02:49.514Z,77.60
2022-09-06T15:05:16.279Z,76.20
2022-09-06T15:07:43.338Z,75.80
2022-09-06T15:10:10.880Z,77.80
2022-09-06T15:12:38.148Z,76.20
2022-09-06T15:15:05.892Z,78.40
2022-09-06T15:17:34.285Z,77.10
2022-09-06T15:20:01.270Z,76.70
2022-09-06T15:22:28.055Z,75.20
2022-09-06T15:24:55.530Z,75.40
2022-09-06T15:27:22.570Z,76.20
2022-09-06T15:29:49.413Z,76.00
2022-09-06T15:32:16.228Z,77.00
2022-09-06T15:34:42.914Z,77.80
2022-09-06T15:37:09.939Z,77.90
2022-09-06T15:39:36.815Z,76.80
2022-09-06T15:42:03.858Z,77.20
2022-09-06T15:44:30.576Z,76.00
2022-09-06T15:46:59.117Z,75.60
2022-09-06T15:49:31.878Z,75.70
2022-09-06T15:52:03.305Z,76.30
2022-09-06T15:54:48.649Z,77.80
2022-09-06T15:57:16.939Z,76.30
2022-09-06T15:59:44.042Z,78.80
2022-09-06T16:02:11.007Z,76.00
2022-09-06T16:04:37.846Z,77.00
2022-09-06T16:07:04.814Z,76.00
2022-09-06T16:09:31.805Z,76.00
2022-09-06T16:11:58.542Z,76.60
2022-09-06T16:14:25.662Z,77.10
2022-09-06T16:16:53.831Z,77.10
2022-09-06T16:19:21.911Z,76.80
2022-09-06T16:21:48.742Z,76.70
2022-09-06T16:24:17.410Z,77.00
2022-09-06T16:26:46.265Z,78.30
2022-09-06T16:29:16.227Z,79.80
2022-09-06T16:31:43.067Z,80.90
2022-09-06T16:34:11.614Z,80.70
2022-09-06T16:36:38.794Z,80.50
2022-09-06T16:39:11.537Z,80.10
2022-09-06T16:41:44.428Z,80.70
2022-09-06T16:44:17.378Z,81.20
2022-09-06T16:46:47.115Z,80.80
2022-09-06T16:49:16.826Z,81.10
2022-09-06T16:51:44.068Z,80.20
2022-09-06T16:54:12.591Z,78.70
2022-09-06T16:56:40.020Z,78.00
2022-09-06T16:59:08.600Z,77.60
2022-09-06T17:01:37.156Z,78.10
2022-09-06T17:04:05.722Z,77.80
2022-09-06T17:06:34.163Z,77.80
2022-09-06T17:09:00.961Z,77.80
2022-09-06T17:11:28.512Z,77.10
2022-09-06T17:13:56.431Z,77.50
2022-09-06T17:16:42.705Z,77.50
2022-09-06T17:19:10.040Z,77.30
2022-09-06T17:21:39.103Z,76.60
2022-09-06T17:24:07.075Z,76.60
2022-09-06T17:26:35.448Z,76.50
2022-09-06T17:29:02.218Z,76.70
2022-09-06T17:31:29.527Z,76.20
2022-09-06T17:33:56.471Z,76.40
2022-09-06T17:36:25.798Z,76.80
2022-09-06T17:38:54.072Z,77.00
2022-09-06T17:41:27.349Z,76.70
2022-09-06T17:43:55.113Z,77.00
2022-09-06T17:46:28.469Z,77.00
2022-09-06T17:48:56.200Z,77.60
2022-09-06T17:51:23.194Z,77.20
2022-09-06T17:53:50.242Z,77.20
2022-09-06T17:56:18.528Z,77.90
2022-09-06T17:58:53.993Z,78.90
2022-09-06T18:01:22.199Z,78.90
2022-09-06T18:03:49.902Z,78.50
2022-09-06T18:06:20.111Z,78.50
2022-09-06T18:08:47.889Z,79.70
2022-09-06T18:11:20.831Z,80.20
2022-09-06T18:13:48.065Z,78.40
2022-09-06T18:16:14.846Z,78.20
2022-09-06T18:18:42.067Z,78.70
2022-09-06T18:21:08.858Z,79.70
2022-09-06T18:23:35.740Z,80.60
2022-09-06T18:26:05.462Z,80.00
2022-09-06T18:28:34.068Z,80.90
2022-09-06T18:31:05.611Z,80.20
2022-09-06T18:33:32.679Z,80.30
2022-09-06T18:35:59.737Z,80.90
2022-09-06T18:38:26.828Z,81.30
2022-09-06T18:40:58.664Z,81.90
2022-09-06T18:43:35.911Z,80.70
2022-09-06T18:46:04.757Z,81.70
2022-09-06T18:48:36.553Z,81.80
2022-09-06T18:51:16.255Z,82.80
2022-09-06T18:53:44.869Z,81.90
2022-09-06T18:56:13.836Z,82.70
2022-09-06T18:58:44.789Z,80.90
2022-09-06T19:01:17.868Z,81.40
2022-09-06T19:03:44.748Z,81.90
2022-09-06T19:06:17.965Z,83.60
2022-09-06T19:08:45.043Z,80.80
2022-09-06T19:11:17.007Z,81.80
2022-09-06T19:13:45.388Z,80.60
2022-09-06T19:16:14.015Z,82.10
2022-09-06T19:18:41.499Z,81.30
2022-09-06T19:21:13.257Z,82.80
2022-09-06T19:23:44.212Z,83.40
2022-09-06T19:26:17.386Z,83.30
2022-09-06T19:29:09.053Z,83.50
2022-09-06T19:31:37.762Z,85.10
2022-09-06T19:34:22.057Z,83.60
2022-09-06T19:36:50.003Z,84.20
2022-09-06T19:39:17.081Z,85.80
2022-09-06T19:41:46.600Z,84.70
2022-09-06T19:44:17.561Z,84.40
2022-09-06T19:46:47.027Z,84.40
2022-09-06T19:49:19.659Z,85.10
2022-09-06T19:51:48.824Z,83.90
2022-09-06T19:54:16.270Z,85.10
2022-09-06T19:56:44.302Z,86.00
2022-09-06T19:59:12.858Z,85.60
2022-09-06T20:01:41.946Z,87.00
2022-09-06T20:04:11.043Z,87.20
2022-09-06T20:06:38.198Z,88.40
2022-09-06T20:09:08.542Z,88.40
2022-09-06T20:11:36.783Z,89.20
2022-09-06T20:14:04.160Z,88.50
2022-09-06T20:16:31.039Z,88.80
2022-09-06T20:18:59.354Z,88.40
2022-09-06T20:21:29.655Z,90.00
2022-09-06T20:23:58.369Z,90.30
2022-09-06T20:26:28.605Z,90.40
2022-09-06T20:28:55.987Z,90.00
2022-09-06T20:31:23.167Z,88.40
2022-09-06T20:33:51.576Z,89.40
2022-09-06T20:36:19.431Z,89.90
2022-09-06T20:38:47.646Z,90.20
2022-09-06T20:41:19.414Z,90.30
2022-09-06T20:43:50.569Z,89.90
2022-09-06T20:46:19.455Z,89.70
2022-09-06T20:48:47.273Z,90.30
2022-09-06T20:51:18.790Z,91.50
2022-09-06T20:53:47.961Z,92.50
2022-09-06T20:56:21.042Z,92.70
2022-09-06T20:58:49.663Z,92.70
2022-09-06T21:01:22.876Z,92.90
2022-09-06T21:03:56.006Z,93.40
2022-09-06T21:06:23.903Z,93.60
2022-09-06T21:08:51.352Z,95.90
2022-09-06T21:11:18.961Z,94.40
2022-09-06T21:13:50.873Z,95.30
2022-09-06T21:16:23.331Z,96.10
2022-09-06T21:18:58.632Z,95.70
2022-09-06T21:21:26.874Z,96.10
2022-09-06T21:23:53.874Z,96.20
2022-09-06T21:26:22.401Z,96.90
2022-09-06T21:28:49.958Z,97.40
2022-09-06T21:31:25.082Z,97.00
2022-09-06T21:33:56.821Z,97.20
2022-09-06T21:36:31.093Z,97.10
2022-09-06T21:38:59.830Z,97.10
2022-09-06T21:41:27.857Z,97.40
2022-09-06T21:43:59.598Z,97.10
2022-09-06T21:46:32.934Z,97.30
2022-09-06T21:49:07.193Z,97.60
2022-09-06T21:51:34.337Z,97.80
2022-09-06T21:54:04.725Z,98.20
2022-09-06T21:56:36.231Z,95.90
2022-09-06T21:59:03.257Z,96.60
2022-09-06T22:01:32.268Z,96.70
2022-09-06T22:04:00.106Z,95.20
2022-09-06T22:06:29.275Z,96.90
2022-09-06T22:08:57.678Z,97.90
2022-09-06T22:11:27.122Z,95.20
2022-09-06T22:13:54.242Z,96.00
2022-09-06T22:16:22.418Z,96.40
2022-09-06T22:18:49.872Z,96.70
2022-09-06T22:21:20.150Z,97.00
2022-09-06T22:23:57.352Z,98.50
2022-09-06T22:26:26.256Z,97.30
2022-09-06T22:28:57.912Z,96.30
2022-09-06T22:31:25.831Z,96.00
2022-09-06T22:33:53.332Z,94.30
2022-09-06T22:36:21.082Z,94.30
2022-09-06T22:38:47.778Z,95.50
2022-09-06T22:41:16.323Z,95.30
2022-09-06T22:43:43.042Z,96.10
2022-09-06T22:46:11.141Z,98.10
2022-09-06T22:48:37.990Z,94.30
2022-09-06T22:51:06.227Z,96.10
2022-09-06T22:53:33.617Z,97.30
2022-09-06T22:56:01.398Z,96.90
2022-09-06T22:58:28.233Z,98.30
2022-09-06T23:00:55.351Z,99.70
2022-09-06T23:03:22.782Z,98.80
2022-09-06T23:05:49.618Z,98.60
2022-09-06T23:08:16.394Z,96.50
2022-09-06T23:10:44.506Z,98.50
2022-09-06T23:13:11.346Z,98.00
2022-09-06T23:15:40.809Z,99.40
2022-09-06T23:18:08.430Z,97.30
2022-09-06T23:20:37.023Z,98.80
2022-09-06T23:23:05.219Z,99.40
2022-09-06T23:25:32.024Z,99.60
2022-09-06T23:28:00.232Z,99.90
2022-09-06T23:30:26.900Z,99.90
2022-09-06T23:32:53.709Z,99.90
2022-09-06T23:35:20.397Z,99.90
2022-09-06T23:37:50.474Z,99.90
2022-09-06T23:40:18.648Z,99.90
2022-09-06T23:42:45.560Z,99.90
2022-09-06T23:45:13.648Z,99.90
2022-09-06T23:47:41.180Z,99.90
2022-09-06T23:50:08.940Z,99.90
2022-09-06T23:52:35.873Z,99.90
2022-09-06T23:55:03.128Z,99.90
2022-09-06T23:57:29.920Z,99.90
2022-09-06T23:59:56.618Z,99.90
